Time;durP1;ratioP1;P1;durP2;ratioP2;P2;SDS_P1;SDS_P2;PMS_P1;PMS_P2;Temp;Humidity;BMP_temperature;BMP_pressure;BME280_temperature;BME280_humidity;BME280_pressure;Samples;Min_cycle;Max_cycle;Signal;HPM_P1;HPM_P2
2022/11/09 00:00:53;;;;;;;17.33;10.07;;;;;;;5.87;100.00;93664.09;4894944;29;20049;-53
2022/11/09 00:03:19;;;;;;;16.77;9.57;;;;;;;5.93;100.00;93657.09;4878689;29;20111;-51
2022/11/09 00:05:54;;;;;;;17.25;9.25;;;;;;;5.78;100.00;93653.63;4895023;29;20049;-53
2022/11/09 00:08:21;;;;;;;19.17;9.68;;;;;;;5.84;100.00;93659.47;4895139;29;20056;-51
2022/11/09 00:10:47;;;;;;;16.27;9.48;;;;;;;5.92;100.00;93662.97;4894978;29;20056;-52
2022/11/09 00:13:14;;;;;;;18.70;8.90;;;;;;;5.81;100.00;93660.22;4895101;29;20526;-56
2022/11/09 00:15:41;;;;;;;19.90;10.38;;;;;;;5.63;100.00;93654.03;4895028;29;20061;-51
2022/11/09 00:18:07;;;;;;;16.80;9.43;;;;;;;5.67;100.00;93652.09;4895260;29;20512;-49
2022/11/09 00:20:34;;;;;;;17.77;9.80;;;;;;;5.67;100.00;93661.00;4894460;29;20095;-50
2022/11/09 00:23:01;;;;;;;22.13;10.38;;;;;;;5.80;100.00;93666.84;4893753;29;20051;-55
2022/11/09 00:25:27;;;;;;;19.97;9.97;;;;;;;5.85;100.00;93655.56;4898526;29;20095;-52
2022/11/09 00:27:54;;;;;;;28.40;11.95;;;;;;;5.81;100.00;93654.78;4891820;29;20412;-52
2022/11/09 00:30:20;;;;;;;21.05;10.13;;;;;;;5.70;100.00;93649.38;4895150;29;20099;-49
2022/11/09 00:32:47;;;;;;;18.73;9.40;;;;;;;5.60;100.00;93648.19;4894807;29;20056;-51
2022/11/09 00:35:14;;;;;;;17.27;9.45;;;;;;;5.65;100.00;93651.69;4895496;29;20684;-52
2022/11/09 00:37:41;;;;;;;15.80;8.93;;;;;;;5.62;100.00;93652.50;4894187;29;20112;-51
2022/11/09 00:40:08;;;;;;;18.10;9.50;;;;;;;5.20;100.00;93660.25;4905455;29;20059;-51
2022/11/09 00:42:35;;;;;;;17.17;9.35;;;;;;;5.43;100.00;93653.66;4912886;29;20048;-54
2022/11/09 00:45:01;;;;;;;19.98;10.15;;;;;;;5.44;100.00;93652.50;4913672;29;20052;-53
2022/11/09 00:47:28;;;;;;;18.38;10.05;;;;;;;5.48;100.00;93650.56;4913326;29;20052;-54
2022/11/09 00:49:55;;;;;;;18.03;10.23;;;;;;;5.39;100.00;93642.75;4913162;29;20052;-51
2022/11/09 00:52:22;;;;;;;17.23;9.60;;;;;;;5.50;100.00;93642.78;4912466;29;20051;-54
2022/11/09 00:54:48;;;;;;;29.05;14.25;;;;;;;5.52;100.00;93649.38;4913121;29;20044;-53
2022/11/09 00:57:15;;;;;;;29.75;16.10;;;;;;;5.46;100.00;93653.66;4913587;29;20052;-53
2022/11/09 00:59:42;;;;;;;20.55;11.70;;;;;;;5.57;100.00;93657.16;4912958;29;20048;-54
2022/11/09 01:02:09;;;;;;;18.87;10.60;;;;;;;5.42;100.00;93649.38;4913397;29;20114;-51
2022/11/09 01:04:35;;;;;;;16.65;8.93;;;;;;;5.38;100.00;93643.94;4912346;29;20413;-51
2022/11/09 01:07:02;;;;;;;15.57;8.30;;;;;;;5.57;100.00;93650.91;4913192;29;20040;-53
2022/11/09 01:09:29;;;;;;;14.73;8.02;;;;;;;5.62;100.00;93652.50;4913135;29;20052;-53
2022/11/09 01:11:55;;;;;;;17.02;8.43;;;;;;;5.67;100.00;93643.91;4912276;29;21994;-53
2022/11/09 01:14:22;;;;;;;16.83;8.70;;;;;;;5.76;100.00;93650.53;4912860;29;20413;-51
2022/11/09 01:16:49;;;;;;;14.00;7.97;;;;;;;5.66;100.00;93639.66;4912633;29;20079;-54
2022/11/09 01:19:16;;;;;;;14.45;8.15;;;;;;;5.77;100.00;93651.28;4913268;29;20044;-52
2022/11/09 01:21:43;;;;;;;14.93;7.40;;;;;;;5.79;100.00;93652.47;4912348;29;20066;-55
2022/11/09 01:24:09;;;;;;;14.13;7.22;;;;;;;5.88;100.00;93651.28;4913018;29;20045;-53
2022/11/09 01:26:36;;;;;;;12.93;7.60;;;;;;;5.97;100.00;93644.28;4911914;29;20044;-53
2022/11/09 01:29:02;;;;;;;14.80;8.02;;;;;;;5.96;100.00;93652.84;4912851;29;20501;-53
2022/11/09 01:31:29;;;;;;;16.85;8.50;;;;;;;6.04;100.00;93657.13;4912355;29;20052;-55
2022/11/09 01:33:56;;;;;;;15.68;8.02;;;;;;;6.07;100.00;93650.09;4911867;29;21582;-54
2022/11/09 01:36:23;;;;;;;14.80;8.30;;;;;;;5.85;100.00;93652.84;4912333;29;20537;-53
2022/11/09 01:38:51;;;;;;;15.23;8.33;;;;;;;5.88;100.00;93651.28;4911568;29;20048;-50
2022/11/09 01:41:27;;;;;;;15.68;8.43;;;;;;;5.73;100.00;93651.28;4876980;29;20051;-52
2022/11/09 01:44:05;;;;;;;15.05;8.07;;;;;;;5.79;100.00;93654.41;4893175;29;20044;-56
2022/11/09 01:46:47;;;;;;;15.02;7.72;;;;;;;5.87;100.00;93649.72;4892958;29;20446;-52
2022/11/09 01:49:39;;;;;;;16.98;8.35;;;;;;;5.83;100.00;93651.69;4893904;29;20494;-49
2022/11/09 01:52:27;;;;;;;18.83;9.53;;;;;;;5.86;100.00;93651.69;4892738;29;20715;-52
2022/11/09 01:55:08;;;;;;;16.00;8.20;;;;;;;5.69;100.00;93645.06;4893202;29;20048;-55
2022/11/09 01:57:41;;;;;;;20.08;11.25;;;;;;;5.87;100.00;93650.50;4892810;29;20486;-49
2022/11/09 02:00:13;;;;;;;23.83;10.48;;;;;;;5.88;100.00;93643.13;4893260;29;20051;-55
2022/11/09 02:02:45;;;;;;;15.10;8.15;;;;;;;5.83;100.00;93638.06;4892706;29;20048;-52
2022/11/09 02:05:15;;;;;;;15.23;7.90;;;;;;;5.74;100.00;93641.97;4893557;29;20052;-53
2022/11/09 02:07:42;;;;;;;15.02;7.38;;;;;;;5.71;100.00;93639.25;4892524;29;20123;-54
2022/11/09 02:10:19;;;;;;;16.52;8.10;;;;;;;5.86;100.00;93637.28;4893383;29;20126;-51
2022/11/09 02:12:47;;;;;;;18.40;9.73;;;;;;;5.87;100.00;93634.16;4875846;29;20052;-55
2022/11/09 02:15:15;;;;;;;17.52;8.80;;;;;;;5.93;100.00;93635.31;4893541;29;20052;-52
2022/11/09 02:17:43;;;;;;;20.07;9.17;;;;;;;5.95;100.00;93635.72;4892497;29;20504;-54
2022/11/09 02:20:11;;;;;;;14.98;7.93;;;;;;;5.86;100.00;93629.13;4893307;29;20079;-52
2022/11/09 02:22:40;;;;;;;13.80;7.75;;;;;;;5.92;100.00;93630.28;4892431;29;20048;-51
2022/11/09 02:25:08;;;;;;;13.13;7.50;;;;;;;5.98;100.00;93631.44;4893322;29;20456;-49
2022/11/09 02:27:36;;;;;;;14.65;6.97;;;;;;;6.21;100.00;93636.44;4892454;29;20088;-54
2022/11/09 02:30:04;;;;;;;12.67;7.10;;;;;;;6.26;100.00;93635.25;4893172;29;20049;-52
2022/11/09 02:32:31;;;;;;;13.82;7.57;;;;;;;6.27;100.00;93632.13;4892453;29;20053;-51
2022/11/09 02:34:58;;;;;;;13.55;7.35;;;;;;;6.29;100.00;93627.06;4893031;29;20049;-55
2022/11/09 02:37:35;;;;;;;14.23;7.55;;;;;;;6.22;100.00;93626.31;4892959;29;20053;-52
2022/11/09 02:40:08;;;;;;;14.40;7.63;;;;;;;6.09;100.00;93626.72;4902065;29;20705;-55
2022/11/09 02:42:34;;;;;;;14.40;7.67;;;;;;;5.75;100.00;93626.41;4910143;29;20044;-52
2022/11/09 02:45:01;;;;;;;16.35;8.13;;;;;;;5.59;100.00;93626.81;4895256;29;20432;-52
2022/11/09 02:47:28;;;;;;;16.50;8.35;;;;;;;5.60;100.00;93637.31;4911546;29;20052;-54
2022/11/09 02:49:56;;;;;;;16.88;8.38;;;;;;;5.72;100.00;93638.09;4911620;29;20044;-52
2022/11/09 02:52:23;;;;;;;13.65;8.15;;;;;;;5.67;100.00;93633.03;4911865;29;20062;-56
2022/11/09 02:54:50;;;;;;;13.60;7.60;;;;;;;5.70;100.00;93635.75;4911650;29;20087;-52
2022/11/09 02:57:16;;;;;;;16.83;8.35;;;;;;;6.00;100.00;93640.78;4912057;29;20052;-52
2022/11/09 02:59:43;;;;;;;13.77;8.25;;;;;;;6.19;100.00;93634.09;4910843;29;20049;-52
2022/11/09 03:02:09;;;;;;;17.83;8.80;;;;;;;6.23;100.00;93633.31;4911478;29;20058;-55
2022/11/09 03:04:36;;;;;;;16.05;8.38;;;;;;;6.15;100.00;93638.00;4911055;29;20059;-54
2022/11/09 03:07:03;;;;;;;14.87;8.33;;;;;;;6.32;100.00;93631.72;4911865;29;20052;-55
2022/11/09 03:09:29;;;;;;;13.93;7.68;;;;;;;6.42;100.00;93637.53;4911311;29;20568;-53
2022/11/09 03:11:56;;;;;;;15.35;8.20;;;;;;;6.33;99.34;93633.28;4910938;29;20051;-51
2022/11/09 03:14:23;;;;;;;15.85;8.43;;;;;;;6.30;100.00;93644.97;4912341;29;20059;-54
2022/11/09 03:16:49;;;;;;;15.60;8.63;;;;;;;6.31;99.87;93640.28;4914660;29;20056;-54
2022/11/09 03:19:16;;;;;;;14.73;8.17;;;;;;;6.40;100.00;93638.72;4898520;29;20048;-53
2022/11/09 03:21:43;;;;;;;15.68;8.02;;;;;;;6.53;100.00;93643.72;4914212;29;20052;-50
2022/11/09 03:24:10;;;;;;;15.18;8.27;;;;;;;6.43;99.37;93636.38;4915119;29;20048;-51
2022/11/09 03:26:36;;;;;;;14.07;7.93;;;;;;;6.46;99.67;93650.00;4914316;29;20055;-54
2022/11/09 03:29:03;;;;;;;16.70;8.10;;;;;;;6.38;99.61;93648.47;4915127;29;20048;-51
2022/11/09 03:31:30;;;;;;;15.00;8.27;;;;;;;6.43;99.72;93645.31;4914320;29;20084;-53
2022/11/09 03:33:57;;;;;;;12.50;7.20;;;;;;;6.47;99.87;93651.53;4913975;29;20514;-53
2022/11/09 03:36:23;;;;;;;13.90;7.40;;;;;;;6.44;99.97;93649.59;4898098;29;20048;-54
2022/11/09 03:38:50;;;;;;;14.98;7.53;;;;;;;6.44;100.00;93657.78;4913353;29;20048;-56
2022/11/09 03:41:17;;;;;;;15.07;7.43;;;;;;;6.43;100.00;93658.94;4896123;29;20052;-55
2022/11/09 03:43:43;;;;;;;13.10;7.80;;;;;;;6.40;100.00;93663.25;4895061;29;20048;-55
2022/11/09 03:46:10;;;;;;;14.32;7.68;;;;;;;6.53;100.00;93671.75;4896027;29;20583;-53
2022/11/09 03:48:36;;;;;;;14.45;7.40;;;;;;;6.49;100.00;93673.72;4894980;29;20056;-54
2022/11/09 03:51:03;;;;;;;14.40;7.40;;;;;;;6.44;100.00;93673.34;4895845;29;20047;-56
2022/11/09 03:53:30;;;;;;;17.02;8.88;;;;;;;6.26;100.00;93678.84;4894255;29;20048;-52
2022/11/09 03:55:57;;;;;;;13.23;7.50;;;;;;;6.44;100.00;93676.06;4895399;29;20880;-55
2022/11/09 03:58:23;;;;;;;14.32;8.10;;;;;;;6.33;100.00;93681.56;4895870;29;20053;-54
2022/11/09 04:00:50;;;;;;;14.20;7.88;;;;;;;6.48;100.00;93693.19;4894511;29;20661;-53
2022/11/09 04:03:17;;;;;;;12.88;7.22;;;;;;;6.39;100.00;93691.66;4895503;29;20053;-51
2022/11/09 04:05:44;;;;;;;14.35;8.07;;;;;;;6.34;100.00;93699.47;4894734;29;20048;-52
2022/11/09 04:08:10;;;;;;;15.33;8.17;;;;;;;6.15;100.00;93700.69;4895476;29;20498;-52
2022/11/09 04:10:37;;;;;;;13.63;8.13;;;;;;;6.37;100.00;93704.13;4894794;29;20044;-49
2022/11/09 04:13:03;;;;;;;18.13;7.95;;;;;;;6.48;100.00;93704.88;4895497;29;20474;-53
2022/11/09 04:15:30;;;;;;;16.90;9.88;;;;;;;6.43;100.00;93709.97;4894531;29;20049;-52
2022/11/09 04:17:58;;;;;;;14.73;8.95;;;;;;;6.49;100.00;93714.59;4895602;29;20048;-55
2022/11/09 04:20:27;;;;;;;14.27;7.70;;;;;;;6.29;100.00;93713.50;4895477;29;20544;-53
2022/11/09 04:23:00;;;;;;;17.23;8.15;;;;;;;6.24;100.00;93716.59;4894528;29;20076;-56
2022/11/09 04:25:32;;;;;;;14.95;7.90;;;;;;;6.10;100.00;93717.44;4894713;29;20053;-52
2022/11/09 04:28:00;;;;;;;14.70;8.05;;;;;;;6.15;100.00;93719.75;4893829;29;20055;-54
2022/11/09 04:30:28;;;;;;;13.75;8.23;;;;;;;6.22;100.00;93719.75;4894850;29;20352;-54
2022/11/09 04:32:56;;;;;;;127.73;61.80;;;;;;;6.32;100.00;93724.41;4877745;29;20511;-51
2022/11/09 04:35:24;;;;;;;24.05;13.68;;;;;;;6.42;100.00;93717.38;4895134;29;20112;-54
2022/11/09 04:38:00;;;;;;;14.20;8.15;;;;;;;6.21;100.00;93718.19;4877620;29;20148;-54
2022/11/09 04:40:28;;;;;;;15.93;8.80;;;;;;;6.22;100.00;93719.75;4907649;29;20052;-55
2022/11/09 04:42:58;;;;;;;15.52;9.25;;;;;;;6.39;100.00;93720.88;4913061;29;20055;-53
2022/11/09 04:45:25;;;;;;;15.70;8.67;;;;;;;6.42;100.00;93708.38;4913765;29;20115;-54
2022/11/09 04:47:59;;;;;;;16.67;9.18;;;;;;;6.30;100.00;93702.22;4913012;29;20416;-53
2022/11/09 04:50:26;;;;;;;15.75;8.43;;;;;;;6.33;100.00;93706.84;4913884;29;20060;-56
2022/11/09 04:52:53;;;;;;;16.23;8.70;;;;;;;6.38;100.00;93703.75;4912600;29;20044;-56
2022/11/09 04:55:20;;;;;;;19.35;10.13;;;;;;;6.39;100.00;93702.56;4913591;29;20052;-52
2022/11/09 04:57:47;;;;;;;20.87;10.83;;;;;;;6.45;100.00;93700.22;4912708;29;20052;-53
2022/11/09 05:00:14;;;;;;;17.95;9.43;;;;;;;6.42;100.00;93708.38;4913267;29;20056;-51
2022/11/09 05:02:40;;;;;;;16.23;8.40;;;;;;;6.43;100.00;93704.50;4912372;29;20099;-51
2022/11/09 05:05:07;;;;;;;14.50;9.05;;;;;;;6.42;100.00;93711.91;4913304;29;20409;-50
2022/11/09 05:07:34;;;;;;;16.25;9.02;;;;;;;6.38;100.00;93717.38;4912118;29;20674;-56
2022/11/09 05:10:00;;;;;;;18.37;10.20;;;;;;;6.42;100.00;93711.13;4913109;29;20660;-55
2022/11/09 05:12:27;;;;;;;19.52;11.07;;;;;;;6.50;100.00;93712.66;4913105;29;20110;-53
2022/11/09 05:14:53;;;;;;;17.52;9.50;;;;;;;6.39;100.00;93705.28;4912308;29;20509;-54
2022/11/09 05:17:20;;;;;;;18.25;9.75;;;;;;;6.47;100.00;93697.88;4912910;29;20060;-54
2022/11/09 05:19:47;;;;;;;29.55;16.92;;;;;;;6.47;100.00;93699.81;4895175;29;20052;-55
2022/11/09 05:25:01;;;;;;;21.85;11.98;;;;;;;6.52;100.00;93691.22;4897792;29;20657;-53
2022/11/09 05:27:28;;;;;;;20.80;11.32;;;;;;;6.56;100.00;93687.34;4912802;29;20106;-54
2022/11/09 05:29:54;;;;;;;21.92;12.43;;;;;;;6.47;100.00;93683.47;4911829;29;20428;-53
2022/11/09 05:32:21;;;;;;;21.73;12.55;;;;;;;6.26;100.00;93685.09;4880116;29;20052;-51
2022/11/09 05:34:48;;;;;;;17.50;10.30;;;;;;;6.50;100.00;93686.19;4912176;29;20055;-55
2022/11/09 05:37:16;;;;;;;19.63;10.30;;;;;;;6.40;100.00;93687.00;4912454;29;20055;-56
2022/11/09 05:39:43;;;;;;;21.33;10.63;;;;;;;6.45;100.00;93700.22;4904469;29;20492;-52
2022/11/09 05:42:10;;;;;;;19.50;9.98;;;;;;;6.41;100.00;93704.91;4893430;29;20521;-51
2022/11/09 05:44:36;;;;;;;18.55;10.27;;;;;;;6.45;100.00;93692.03;4892704;29;20108;-52
2022/11/09 05:47:03;;;;;;;17.50;10.13;;;;;;;6.64;100.00;93698.19;4893229;29;20099;-54
2022/11/09 05:49:30;;;;;;;19.27;10.43;;;;;;;6.65;100.00;93697.81;4893510;29;20425;-52
2022/11/09 05:51:56;;;;;;;17.83;9.93;;;;;;;6.60;100.00;93707.19;4875878;29;20903;-56
2022/11/09 05:54:23;;;;;;;17.88;9.98;;;;;;;6.67;100.00;93702.88;4893529;29;20103;-55
2022/11/09 05:56:50;;;;;;;19.75;11.05;;;;;;;6.67;100.00;93703.63;4876178;29;20058;-53
2022/11/09 05:59:16;;;;;;;35.27;18.03;;;;;;;6.71;100.00;93701.66;4893387;29;20537;-54
2022/11/09 06:01:43;;;;;;;42.88;22.45;;;;;;;6.71;100.00;93706.34;4875239;29;20052;-53
2022/11/09 06:04:10;;;;;;;50.95;26.00;;;;;;;6.84;100.00;93709.41;4893935;29;20048;-55
2022/11/09 06:06:36;;;;;;;32.30;16.83;;;;;;;6.80;100.00;93714.88;4886722;29;20410;-54
2022/11/09 06:09:03;;;;;;;28.70;16.38;;;;;;;6.79;100.00;93716.84;4851201;29;20497;-53
2022/11/09 06:11:30;;;;;;;28.17;15.97;;;;;;;6.91;100.00;93712.88;4883874;29;20091;-56
2022/11/09 06:13:57;;;;;;;22.40;12.40;;;;;;;6.86;100.00;93720.69;4882101;29;21802;-54
2022/11/09 06:16:24;;;;;;;21.25;11.68;;;;;;;6.99;100.00;93708.94;4883119;29;20056;-53
2022/11/09 06:18:51;;;;;;;23.30;12.93;;;;;;;7.07;100.00;93708.94;4883656;29;20049;-57
2022/11/09 06:21:17;;;;;;;24.98;13.77;;;;;;;6.99;100.00;93717.13;4866316;29;20051;-53
2022/11/09 06:23:44;;;;;;;27.13;14.27;;;;;;;7.14;100.00;93726.03;4882050;29;20048;-52
2022/11/09 06:26:11;;;;;;;26.27;14.10;;;;;;;7.25;100.00;93731.44;4884590;29;20103;-51
2022/11/09 06:28:38;;;;;;;22.77;12.43;;;;;;;7.27;100.00;93729.09;4865421;29;20558;-54
2022/11/09 06:31:07;;;;;;;19.45;11.63;;;;;;;7.40;100.00;93727.44;4882457;29;20099;-52
2022/11/09 06:33:35;;;;;;;18.92;10.90;;;;;;;7.44;100.00;93730.13;4883769;29;20048;-52
2022/11/09 06:36:03;;;;;;;19.30;10.53;;;;;;;7.51;100.00;93741.03;4881024;29;20150;-55
2022/11/09 06:38:30;;;;;;;16.77;10.30;;;;;;;7.45;100.00;93739.91;4884219;29;20060;-52
2022/11/09 06:40:58;;;;;;;18.52;9.13;;;;;;;7.57;100.00;93753.06;4884758;29;20152;-51
2022/11/09 06:43:25;;;;;;;16.00;9.98;;;;;;;7.49;100.00;93750.81;4881321;29;20053;-52
2022/11/09 06:45:52;;;;;;;16.50;9.80;;;;;;;7.62;100.00;93759.28;4873515;29;20413;-50
2022/11/09 06:48:19;;;;;;;19.77;10.43;;;;;;;7.34;100.00;93748.13;4873408;29;20060;-54
2022/11/09 06:50:46;;;;;;;17.95;10.30;;;;;;;7.52;100.00;93745.28;4881006;29;20474;-53
2022/11/09 06:53:14;;;;;;;15.20;9.63;;;;;;;7.57;100.00;93747.63;4895528;29;20079;-53
2022/11/09 06:55:42;;;;;;;16.23;9.23;;;;;;;7.67;100.00;93750.69;4895575;29;20045;-53
2022/11/09 06:58:15;;;;;;;16.40;8.80;;;;;;;7.70;100.00;93758.84;4895487;29;20107;-51
2022/11/09 07:00:43;;;;;;;21.90;12.33;;;;;;;7.66;100.00;93754.59;4879155;29;20499;-48
2022/11/09 07:03:13;;;;;;;21.50;11.13;;;;;;;7.76;100.00;93751.00;4896359;29;20051;-51
2022/11/09 07:05:40;;;;;;;18.83;9.50;;;;;;;7.76;100.00;93757.22;4896010;29;20055;-52
2022/11/09 07:08:07;;;;;;;18.25;9.75;;;;;;;7.78;100.00;93762.31;4896376;29;20043;-49
2022/11/09 07:10:34;;;;;;;16.50;9.23;;;;;;;7.86;100.00;93766.53;4895902;29;20119;-51
2022/11/09 07:13:02;;;;;;;18.07;8.60;;;;;;;7.91;100.00;93765.34;4896290;29;20105;-53
2022/11/09 07:15:28;;;;;;;16.45;8.95;;;;;;;7.93;100.00;93771.19;4896392;29;20502;-51
2022/11/09 07:17:57;;;;;;;21.92;10.52;;;;;;;7.98;100.00;93774.25;4895639;29;20099;-50
2022/11/09 07:20:24;;;;;;;16.77;9.13;;;;;;;8.07;100.00;93771.06;4896381;29;20044;-51
2022/11/09 07:22:50;;;;;;;22.02;8.73;;;;;;;8.26;100.00;93769.72;4895627;29;20060;-51
2022/11/09 07:25:17;;;;;;;17.33;8.07;;;;;;;8.34;100.00;93784.13;4896468;29;20474;-51
2022/11/09 07:27:45;;;;;;;13.50;6.43;;;;;;;8.40;100.00;93793.44;4895652;29;20508;-53
2022/11/09 07:30:12;;;;;;;21.25;10.32;;;;;;;8.48;100.00;93784.00;4896431;29;20128;-50
2022/11/09 07:32:39;;;;;;;14.23;7.35;;;;;;;8.56;100.00;93790.19;4895542;29;20053;-63
2022/11/09 07:35:26;;;;;;;10.45;6.28;;;;;;;8.66;100.00;93786.56;4896197;29;20059;-50
2022/11/09 07:37:53;;;;;;;13.03;6.10;;;;;;;8.70;100.00;93786.53;4895513;29;20409;-53
2022/11/09 07:40:19;;;;;;;9.07;5.07;;;;;;;8.79;100.00;93795.03;4908266;29;20059;-52
2022/11/09 07:42:46;;;;;;;11.20;5.10;;;;;;;8.79;100.00;93800.50;4913923;29;20051;-50
2022/11/09 07:45:13;;;;;;;9.10;5.20;;;;;;;8.79;100.00;93790.34;4914669;29;20076;-49
2022/11/09 07:47:39;;;;;;;8.50;4.78;;;;;;;8.83;100.00;93789.53;4914180;29;20044;-55
2022/11/09 07:50:06;;;;;;;9.87;5.23;;;;;;;8.89;100.00;93793.38;4914591;29;20112;-51
2022/11/09 07:52:33;;;;;;;10.80;5.57;;;;;;;8.94;100.00;93801.16;4914365;29;20052;-49
2022/11/09 07:55:00;;;;;;;10.02;5.18;;;;;;;8.98;100.00;93788.97;4914678;29;20489;-52
2022/11/09 07:57:26;;;;;;;8.82;4.80;;;;;;;9.05;100.00;93795.53;4914719;29;20339;-54
2022/11/09 07:59:53;;;;;;;8.77;4.80;;;;;;;9.06;100.00;93791.63;4913493;29;20536;-50
2022/11/09 08:02:19;;;;;;;7.67;4.20;;;;;;;9.09;100.00;93809.97;4914678;29;20481;-50
2022/11/09 08:04:46;;;;;;;8.88;4.55;;;;;;;9.08;100.00;93814.66;4913581;29;20060;-52
2022/11/09 08:07:13;;;;;;;8.80;4.80;;;;;;;9.03;100.00;93815.09;4914289;29;20460;-48
2022/11/09 08:09:40;;;;;;;7.63;4.30;;;;;;;9.05;100.00;93815.47;4896731;29;20055;-47
2022/11/09 08:12:06;;;;;;;7.65;5.18;;;;;;;9.09;100.00;93815.44;4914492;29;20497;-52
2022/11/09 08:14:33;;;;;;;8.70;4.90;;;;;;;9.15;100.00;93809.09;4914162;29;20056;-54
2022/11/09 08:17:00;;;;;;;7.45;4.45;;;;;;;9.25;100.00;93809.41;4913939;29;20044;-51
2022/11/09 08:19:26;;;;;;;7.63;4.22;;;;;;;9.31;100.00;93814.00;4914487;29;20048;-51
2022/11/09 08:21:56;;;;;;;7.43;4.63;;;;;;;9.34;100.00;93817.91;4913508;29;20040;-51
2022/11/09 08:24:22;;;;;;;10.13;5.00;;;;;;;9.43;100.00;93823.63;4914322;29;20063;-53
2022/11/09 08:26:49;;;;;;;8.33;4.60;;;;;;;9.44;100.00;93824.41;4896794;29;20051;-56
2022/11/09 08:29:16;;;;;;;7.47;4.40;;;;;;;9.48;100.00;93827.91;4914136;29;20054;-54
2022/11/09 08:31:43;;;;;;;8.25;4.20;;;;;;;9.45;100.00;93821.25;4896583;29;20118;-58
2022/11/09 08:34:15;;;;;;;7.05;4.60;;;;;;;9.47;100.00;93824.38;4914171;29;20052;-49
2022/11/09 08:36:42;;;;;;;10.18;4.63;;;;;;;9.40;100.00;93829.97;4897388;29;20537;-52
2022/11/09 08:39:09;;;;;;;6.80;4.37;;;;;;;9.51;100.00;93829.81;4910989;29;20051;-52
2022/11/09 08:41:35;;;;;;;7.90;4.03;;;;;;;9.55;100.00;93827.81;4894408;29;20409;-52
2022/11/09 08:44:02;;;;;;;7.75;4.25;;;;;;;9.57;100.00;93830.91;4894889;29;20480;-51
2022/11/09 08:46:29;;;;;;;8.75;4.70;;;;;;;9.58;100.00;93838.72;4895002;29;20103;-53
2022/11/09 08:48:55;;;;;;;8.07;4.70;;;;;;;9.65;100.00;93826.88;4893962;29;20099;-54
2022/11/09 08:51:22;;;;;;;8.60;4.90;;;;;;;9.67;100.00;93829.22;4895070;29;20111;-52
2022/11/09 08:53:50;;;;;;;7.75;4.68;;;;;;;9.69;100.00;93838.56;4894426;29;20112;-52
2022/11/09 08:56:17;;;;;;;8.93;4.65;;;;;;;9.77;100.00;93834.53;4894829;29;20056;-56
2022/11/09 08:58:45;;;;;;;8.13;4.93;;;;;;;9.80;100.00;93824.75;4894270;29;20055;-60
2022/11/09 09:01:11;;;;;;;7.57;4.30;;;;;;;9.85;100.00;93824.25;4894840;29;20427;-51
2022/11/09 09:03:42;;;;;;;6.90;4.40;;;;;;;9.90;100.00;93815.59;4894384;29;20107;-50
2022/11/09 09:06:09;;;;;;;7.63;4.78;;;;;;;10.12;100.00;93826.22;4894753;29;20053;-48
2022/11/09 09:08:36;;;;;;;7.97;4.47;;;;;;;10.12;100.00;93818.00;4894113;29;20127;-48
2022/11/09 09:11:03;;;;;;;6.32;3.75;;;;;;;10.20;100.00;93808.47;4894429;29;20052;-56
2022/11/09 09:13:31;;;;;;;6.40;3.35;;;;;;;10.18;100.00;93813.59;4894068;29;20074;-49
2022/11/09 09:16:08;;;;;;;7.27;4.20;;;;;;;10.17;100.00;93812.81;4893412;29;20699;-53
2022/11/09 09:18:34;;;;;;;8.48;4.63;;;;;;;10.22;100.00;93808.06;4894270;29;20052;-48
2022/11/09 09:21:04;;;;;;;7.72;3.75;;;;;;;10.34;100.00;93810.25;4894379;29;20052;-52
2022/11/09 09:23:31;;;;;;;6.50;3.92;;;;;;;10.39;100.00;93815.28;4893859;29;20044;-50
2022/11/09 09:25:58;;;;;;;9.82;4.10;;;;;;;10.45;100.00;93813.59;4894334;29;20055;-52
2022/11/09 09:28:24;;;;;;;19.53;6.60;;;;;;;10.42;100.00;93819.13;4894295;29;20056;-53
2022/11/09 09:30:52;;;;;;;25.83;8.70;;;;;;;10.28;100.00;93818.16;4893549;29;20052;-53
2022/11/09 09:33:18;;;;;;;8.75;4.55;;;;;;;10.31;100.00;93811.09;4894460;29;20414;-53
2022/11/09 09:35:45;;;;;;;8.45;4.50;;;;;;;10.32;100.00;93820.84;4893778;29;20057;-53
2022/11/09 09:38:12;;;;;;;6.57;3.40;;;;;;;10.35;100.00;93811.81;4894259;29;20062;-52
2022/11/09 09:41:02;;;;;;;6.20;3.60;;;;;;;10.46;100.00;93812.41;4908302;29;20112;-50
2022/11/09 09:43:34;;;;;;;5.85;3.40;;;;;;;10.52;100.00;93818.19;4913029;29;20062;-53
2022/11/09 09:46:18;;;;;;;6.07;3.38;;;;;;;10.57;100.00;93829.47;4911915;29;20778;-55
2022/11/09 09:48:51;;;;;;;5.40;3.00;;;;;;;10.54;99.90;93824.81;4912572;29;20054;-52
2022/11/09 09:51:20;;;;;;;5.97;3.47;;;;;;;10.40;100.00;93830.53;4912895;29;20394;-48
2022/11/09 09:53:55;;;;;;;8.23;3.13;;;;;;;10.43;100.00;93818.72;4912119;29;20048;-51
2022/11/09 09:56:33;;;;;;;6.05;3.20;;;;;;;10.35;100.00;93814.56;4913057;29;20040;-53
2022/11/09 09:59:12;;;;;;;5.70;3.13;;;;;;;10.29;100.00;93811.47;4911783;29;21749;-53
2022/11/09 10:01:43;;;;;;;5.45;2.92;;;;;;;10.39;100.00;93826.25;4912270;29;20052;-53
2022/11/09 10:04:21;;;;;;;4.97;2.70;;;;;;;10.58;99.02;93825.53;4912486;29;20417;-50
2022/11/09 10:07:10;;;;;;;8.03;4.10;;;;;;;10.71;100.00;93824.94;4912210;29;20093;-50
2022/11/09 10:10:09;;;;;;;7.93;3.60;;;;;;;10.85;99.24;93826.66;4912094;29;20052;-55
2022/11/09 10:13:05;;;;;;;15.50;6.10;;;;;;;10.89;99.00;93824.63;4905517;29;20367;-55
2022/11/09 10:15:39;;;;;;;6.80;3.10;;;;;;;10.91;98.51;93827.72;4912117;29;20052;-51
2022/11/09 10:18:12;;;;;;;7.35;3.17;;;;;;;10.92;98.41;93827.28;4912223;29;20099;-56
2022/11/09 10:21:00;;;;;;;7.23;4.67;;;;;;;10.94;98.68;93824.91;4911872;29;20133;-56
2022/11/09 10:23:56;;;;;;;5.63;3.42;;;;;;;10.87;98.82;93824.28;4912400;29;20575;-56
2022/11/09 10:26:41;;;;;;;5.28;3.30;;;;;;;11.00;99.05;93809.50;4911431;29;20675;-52
2022/11/09 10:29:33;;;;;;;5.13;3.08;;;;;;;10.95;98.37;93809.22;4911104;29;20162;-52
2022/11/09 10:32:20;;;;;;;5.50;2.78;;;;;;;11.01;98.07;93802.03;4910756;29;20762;-50
2022/11/09 10:34:53;;;;;;;5.63;3.30;;;;;;;11.02;97.46;93811.06;4911723;29;20056;-50
2022/11/09 10:37:31;;;;;;;4.68;2.40;;;;;;;10.92;97.41;93801.81;4912389;29;20100;-54
2022/11/09 10:40:15;;;;;;;4.07;2.45;;;;;;;10.92;96.56;93802.56;4901587;29;21024;-55
2022/11/09 10:42:49;;;;;;;5.70;3.03;;;;;;;11.00;96.47;93798.50;4892601;29;20048;-48
2022/11/09 10:45:37;;;;;;;6.45;3.30;;;;;;;10.88;96.29;93807.38;4893249;29;20057;-53
2022/11/09 10:48:05;;;;;;;5.67;2.87;;;;;;;10.92;94.81;93802.56;4892231;29;22069;-52
2022/11/09 10:50:45;;;;;;;5.28;2.38;;;;;;;10.93;93.93;93795.91;4892722;29;20115;-52
2022/11/09 10:53:14;;;;;;;4.72;1.77;;;;;;;10.94;92.81;93799.41;4893260;29;20063;-54
2022/11/09 10:55:56;;;;;;;3.92;2.00;;;;;;;11.02;92.84;93805.56;4893006;29;20127;-55
2022/11/09 10:58:33;;;;;;;4.47;2.33;;;;;;;11.00;91.98;93790.25;4893221;29;20305;-51
2022/11/09 11:01:03;;;;;;;3.50;2.20;;;;;;;11.06;91.16;93792.53;4891835;29;20798;-56
2022/11/09 11:03:40;;;;;;;3.47;1.90;;;;;;;11.11;90.77;93792.06;4892867;29;20059;-53
2022/11/09 11:06:21;;;;;;;3.78;2.00;;;;;;;11.16;89.35;93797.81;4891934;29;20799;-53
2022/11/09 11:08:50;;;;;;;3.78;1.85;;;;;;;11.29;88.34;93786.19;4892686;29;20650;-52
2022/11/09 11:11:31;;;;;;;4.68;2.65;;;;;;;11.35;88.27;93777.03;4892807;29;20052;-54
2022/11/09 11:14:21;;;;;;;4.83;2.57;;;;;;;11.76;87.25;93772.25;4891787;29;20407;-52
2022/11/09 11:16:51;;;;;;;5.45;2.40;;;;;;;12.08;86.30;93773.53;4892562;29;20421;-51
2022/11/09 11:19:40;;;;;;;3.60;2.10;;;;;;;12.09;84.08;93767.63;4893093;29;20051;-53
2022/11/09 11:22:09;;;;;;;3.70;2.00;;;;;;;12.36;82.41;93766.59;4892091;29;20889;-49
2022/11/09 11:24:54;;;;;;;3.72;2.35;;;;;;;12.66;81.87;93756.41;4892298;29;20059;-56
2022/11/09 11:27:34;;;;;;;2.90;1.50;;;;;;;13.13;79.43;93744.91;4892828;29;20052;-51
2022/11/09 11:30:13;;;;;;;4.68;1.80;;;;;;;12.70;79.20;93757.84;4875064;29;20834;-51
2022/11/09 11:32:39;;;;;;;3.72;1.90;;;;;;;12.87;80.61;93758.59;4892262;29;20040;-54
2022/11/09 11:35:36;;;;;;;3.55;1.65;;;;;;;12.51;79.71;93756.75;4893341;29;20059;-48
2022/11/09 11:38:05;;;;;;;2.72;1.50;;;;;;;12.66;80.18;93759.94;4895221;29;21531;-51
2022/11/09 11:40:50;;;;;;;3.47;1.70;;;;;;;12.41;81.75;93760.53;4909225;29;20048;-55